sensor_id;sensor_type;location;lat;lon;timestamp;pressure;altitude;pressure_sealevel;temperature;humidity
22440;BME280;11387;51.612;7.210;2023-01-10T00:00:37;100305.31;;;4.82;97.87
22440;BME280;11387;51.612;7.210;2023-01-10T00:03:06;100294.19;;;4.93;97.50
22440;BME280;11387;51.612;7.210;2023-01-10T00:05:36;100306.94;;;4.88;97.78
22440;BME280;11387;51.612;7.210;2023-01-10T00:08:07;100313.19;;;4.98;97.71
22440;BME280;11387;51.612;7.210;2023-01-10T00:10:36;100315.88;;;4.98;97.00
22440;BME280;11387;51.612;7.210;2023-01-10T00:13:04;100320.22;;;4.94;97.29
22440;BME280;11387;51.612;7.210;2023-01-10T00:15:50;100326.97;;;4.92;97.50
22440;BME280;11387;51.612;7.210;2023-01-10T00:18:19;100337.56;;;4.98;98.04
22440;BME280;11387;51.612;7.210;2023-01-10T00:20:48;100343.25;;;4.97;97.17
22440;BME280;11387;51.612;7.210;2023-01-10T00:23:18;100347.34;;;5.04;96.48
22440;BME280;11387;51.612;7.210;2023-01-10T00:25:50;100350.63;;;5.12;95.94
22440;BME280;11387;51.612;7.210;2023-01-10T00:28:18;100357.66;;;5.07;96.40
22440;BME280;11387;51.612;7.210;2023-01-10T00:30:47;100365.25;;;5.05;96.59
22440;BME280;11387;51.612;7.210;2023-01-10T00:33:23;100381.56;;;5.16;96.05
22440;BME280;11387;51.612;7.210;2023-01-10T00:35:52;100383.16;;;5.06;96.57
22440;BME280;11387;51.612;7.210;2023-01-10T00:38:22;100389.66;;;5.05;96.64
22440;BME280;11387;51.612;7.210;2023-01-10T00:40:51;100400.50;;;5.11;96.24
22440;BME280;11387;51.612;7.210;2023-01-10T00:43:19;100398.91;;;5.15;96.15
22440;BME280;11387;51.612;7.210;2023-01-10T00:46:06;100390.75;;;5.15;95.62
22440;BME280;11387;51.612;7.210;2023-01-10T00:48:35;100394.00;;;5.12;95.64
22440;BME280;11387;51.612;7.210;2023-01-10T00:51:04;100397.25;;;5.08;95.56
22440;BME280;11387;51.612;7.210;2023-01-10T00:53:34;100403.22;;;5.05;95.89
22440;BME280;11387;51.612;7.210;2023-01-10T00:56:02;100406.44;;;5.02;96.08
22440;BME280;11387;51.612;7.210;2023-01-10T00:58:31;100407.53;;;5.01;95.43
22440;BME280;11387;51.612;7.210;2023-01-10T01:01:00;100417.53;;;4.96;96.25
22440;BME280;11387;51.612;7.210;2023-01-10T01:03:28;100432.19;;;4.95;96.21
22440;BME280;11387;51.612;7.210;2023-01-10T01:05:57;100437.88;;;4.98;96.03
22440;BME280;11387;51.612;7.210;2023-01-10T01:08:31;100447.09;;;4.97;95.74
22440;BME280;11387;51.612;7.210;2023-01-10T01:11:01;100449.53;;;4.99;95.63
22440;BME280;11387;51.612;7.210;2023-01-10T01:13:29;100459.88;;;5.02;95.89
22440;BME280;11387;51.612;7.210;2023-01-10T01:15:58;100474.50;;;5.01;95.73
22440;BME280;11387;51.612;7.210;2023-01-10T01:18:27;100460.41;;;5.04;95.11
22440;BME280;11387;51.612;7.210;2023-01-10T01:20:57;100469.34;;;4.99;95.33
22440;BME280;11387;51.612;7.210;2023-01-10T01:23:27;100466.06;;;4.97;95.64
22440;BME280;11387;51.612;7.210;2023-01-10T01:25:56;100484.50;;;4.95;95.34
22440;BME280;11387;51.612;7.210;2023-01-10T01:28:26;100482.34;;;4.97;95.01
22440;BME280;11387;51.612;7.210;2023-01-10T01:30:54;100502.41;;;4.96;95.24
22440;BME280;11387;51.612;7.210;2023-01-10T01:33:23;100498.06;;;4.95;95.53
22440;BME280;11387;51.612;7.210;2023-01-10T01:35:52;100495.34;;;4.95;95.33
22440;BME280;11387;51.612;7.210;2023-01-10T01:38:20;100504.31;;;5.01;94.85
22440;BME280;11387;51.612;7.210;2023-01-10T01:40:48;100501.34;;;5.02;94.51
22440;BME280;11387;51.612;7.210;2023-01-10T01:43:22;100513.25;;;4.96;94.59
22440;BME280;11387;51.612;7.210;2023-01-10T01:45:54;100516.50;;;4.98;93.85
22440;BME280;11387;51.612;7.210;2023-01-10T01:48:33;100523.53;;;4.94;94.43
22440;BME280;11387;51.612;7.210;2023-01-10T01:51:07;100524.38;;;5.00;94.77
22440;BME280;11387;51.612;7.210;2023-01-10T01:53:42;100533.81;;;4.92;94.23
22440;BME280;11387;51.612;7.210;2023-01-10T01:56:16;100533.81;;;4.92;93.97
22440;BME280;11387;51.612;7.210;2023-01-10T01:58:49;100522.97;;;4.92;93.79
22440;BME280;11387;51.612;7.210;2023-01-10T02:04:28;100528.19;;;5.04;93.07
22440;BME280;11387;51.612;7.210;2023-01-10T02:06:59;100533.84;;;4.97;92.93
22440;BME280;11387;51.612;7.210;2023-01-10T02:09:30;100543.63;;;4.98;92.70
22440;BME280;11387;51.612;7.210;2023-01-10T02:12:01;100547.47;;;5.07;92.70
22440;BME280;11387;51.612;7.210;2023-01-10T02:14:30;100534.41;;;4.99;92.45
22440;BME280;11387;51.612;7.210;2023-01-10T02:16:59;100550.66;;;4.99;92.87
22440;BME280;11387;51.612;7.210;2023-01-10T02:19:39;100547.69;;;5.01;92.45
22440;BME280;11387;51.612;7.210;2023-01-10T02:22:35;100549.63;;;5.05;92.12
22440;BME280;11387;51.612;7.210;2023-01-10T02:25:37;100553.13;;;5.01;92.11
22440;BME280;11387;51.612;7.210;2023-01-10T02:28:29;100552.31;;;5.00;91.80
22440;BME280;11387;51.612;7.210;2023-01-10T02:31:20;100559.59;;;4.95;92.09
22440;BME280;11387;51.612;7.210;2023-01-10T02:33:58;100551.16;;;4.91;91.93
22440;BME280;11387;51.612;7.210;2023-01-10T02:36:37;100547.38;;;4.87;92.38
22440;BME280;11387;51.612;7.210;2023-01-10T02:39:15;100550.94;;;4.98;91.89
22440;BME280;11387;51.612;7.210;2023-01-10T02:41:50;100557.72;;;5.00;91.38
22440;BME280;11387;51.612;7.210;2023-01-10T02:44:28;100556.69;;;5.06;91.10
22440;BME280;11387;51.612;7.210;2023-01-10T02:47:02;100560.25;;;5.12;90.85
22440;BME280;11387;51.612;7.210;2023-01-10T02:49:41;100562.34;;;5.00;91.05
22440;BME280;11387;51.612;7.210;2023-01-10T02:52:12;100562.00;;;4.86;91.13
22440;BME280;11387;51.612;7.210;2023-01-10T02:54:44;100560.38;;;4.85;91.24
22440;BME280;11387;51.612;7.210;2023-01-10T02:57:21;100562.56;;;4.93;91.69
22440;BME280;11387;51.612;7.210;2023-01-10T03:00:22;100560.72;;;5.04;90.80
22440;BME280;11387;51.612;7.210;2023-01-10T03:03:12;100575.41;;;5.08;90.06
22440;BME280;11387;51.612;7.210;2023-01-10T03:05:53;100577.31;;;5.13;89.33
22440;BME280;11387;51.612;7.210;2023-01-10T03:08:32;100583.28;;;5.10;88.82
22440;BME280;11387;51.612;7.210;2023-01-10T03:11:04;100575.97;;;5.15;88.57
22440;BME280;11387;51.612;7.210;2023-01-10T03:13:36;100581.69;;;5.19;88.93
22440;BME280;11387;51.612;7.210;2023-01-10T03:16:09;100590.63;;;5.14;89.01
22440;BME280;11387;51.612;7.210;2023-01-10T03:18:44;100594.16;;;5.15;89.04
22440;BME280;11387;51.612;7.210;2023-01-10T03:21:17;100602.00;;;5.11;88.87
22440;BME280;11387;51.612;7.210;2023-01-10T03:23:49;100599.84;;;5.13;89.06
22440;BME280;11387;51.612;7.210;2023-01-10T03:26:26;100602.00;;;5.11;88.05
22440;BME280;11387;51.612;7.210;2023-01-10T03:29:01;100613.16;;;5.25;87.96
22440;BME280;11387;51.612;7.210;2023-01-10T03:31:36;100618.84;;;5.18;87.46
22440;BME280;11387;51.612;7.210;2023-01-10T03:34:07;100618.53;;;5.10;87.75
22440;BME280;11387;51.612;7.210;2023-01-10T03:36:40;100621.75;;;5.06;87.94
22440;BME280;11387;51.612;7.210;2023-01-10T03:39:15;100633.72;;;5.11;87.38
22440;BME280;11387;51.612;7.210;2023-01-10T03:41:48;100628.81;;;5.07;87.30
22440;BME280;11387;51.612;7.210;2023-01-10T03:44:25;100630.38;;;4.98;87.99
22440;BME280;11387;51.612;7.210;2023-01-10T03:47:19;100635.91;;;4.77;88.38
22440;BME280;11387;51.612;7.210;2023-01-10T03:49:54;100634.53;;;4.74;88.33
22440;BME280;11387;51.612;7.210;2023-01-10T03:52:25;100643.44;;;4.69;88.63
22440;BME280;11387;51.612;7.210;2023-01-10T03:54:54;100645.00;;;4.60;88.58
22440;BME280;11387;51.612;7.210;2023-01-10T03:57:25;100641.44;;;4.55;88.89
22440;BME280;11387;51.612;7.210;2023-01-10T03:59:55;100649.53;;;4.50;89.03
22440;BME280;11387;51.612;7.210;2023-01-10T04:02:25;100655.25;;;4.53;89.40
22440;BME280;11387;51.612;7.210;2023-01-10T04:04:54;100656.66;;;4.61;88.77
22440;BME280;11387;51.612;7.210;2023-01-10T04:07:22;100658.53;;;4.60;88.68
22440;BME280;11387;51.612;7.210;2023-01-10T04:09:52;100660.44;;;4.60;88.74
22440;BME280;11387;51.612;7.210;2023-01-10T04:12:21;100663.13;;;4.55;89.36
22440;BME280;11387;51.612;7.210;2023-01-10T04:14:49;100668.03;;;4.58;88.76
22440;BME280;11387;51.612;7.210;2023-01-10T04:17:18;100671.81;;;4.57;89.07
22440;BME280;11387;51.612;7.210;2023-01-10T04:19:46;100675.06;;;4.59;89.21
22440;BME280;11387;51.612;7.210;2023-01-10T04:22:14;100683.31;;;4.74;88.96
22440;BME280;11387;51.612;7.210;2023-01-10T04:24:43;100691.19;;;4.76;88.99
22440;BME280;11387;51.612;7.210;2023-01-10T04:27:14;100684.44;;;4.78;88.08
22440;BME280;11387;51.612;7.210;2023-01-10T04:29:42;100688.22;;;4.77;88.40
22440;BME280;11387;51.612;7.210;2023-01-10T04:32:11;100691.09;;;4.65;88.36
22440;BME280;11387;51.612;7.210;2023-01-10T04:34:39;100679.38;;;4.55;88.43
22440;BME280;11387;51.612;7.210;2023-01-10T04:37:08;100682.41;;;4.58;88.88
22440;BME280;11387;51.612;7.210;2023-01-10T04:39:36;100672.88;;;4.56;89.09
22440;BME280;11387;51.612;7.210;2023-01-10T04:42:05;100686.75;;;4.64;88.27
22440;BME280;11387;51.612;7.210;2023-01-10T04:44:34;100690.69;;;4.47;89.03
22440;BME280;11387;51.612;7.210;2023-01-10T04:47:03;100692.16;;;4.32;89.38
22440;BME280;11387;51.612;7.210;2023-01-10T04:49:31;100697.78;;;4.26;90.07
22440;BME280;11387;51.612;7.210;2023-01-10T04:52:00;100693.19;;;4.26;90.19
22440;BME280;11387;51.612;7.210;2023-01-10T04:54:28;100701.97;;;4.38;89.84
22440;BME280;11387;51.612;7.210;2023-01-10T04:56:57;100702.16;;;4.32;89.74
22440;BME280;11387;51.612;7.210;2023-01-10T04:59:25;100699.31;;;4.44;89.60
22440;BME280;11387;51.612;7.210;2023-01-10T05:01:57;100711.59;;;4.51;88.96
22440;BME280;11387;51.612;7.210;2023-01-10T05:04:25;100708.63;;;4.53;89.11
22440;BME280;11387;51.612;7.210;2023-01-10T05:06:54;100710.97;;;4.44;89.27
22440;BME280;11387;51.612;7.210;2023-01-10T05:09:22;100716.06;;;4.40;89.49
22440;BME280;11387;51.612;7.210;2023-01-10T05:11:51;100715.00;;;4.42;89.23
22440;BME280;11387;51.612;7.210;2023-01-10T05:14:19;100727.91;;;4.34;89.60
22440;BME280;11387;51.612;7.210;2023-01-10T05:16:48;100720.88;;;4.33;90.09
22440;BME280;11387;51.612;7.210;2023-01-10T05:19:17;100729.50;;;4.30;90.54
22440;BME280;11387;51.612;7.210;2023-01-10T05:21:46;100727.00;;;4.24;90.15
22440;BME280;11387;51.612;7.210;2023-01-10T05:24:14;100739.94;;;4.17;90.48
22440;BME280;11387;51.612;7.210;2023-01-10T05:26:43;100749.88;;;4.11;91.05
22440;BME280;11387;51.612;7.210;2023-01-10T05:29:11;100749.94;;;4.16;90.85
22440;BME280;11387;51.612;7.210;2023-01-10T05:31:40;100751.50;;;4.12;90.98
22440;BME280;11387;51.612;7.210;2023-01-10T05:34:10;100754.16;;;4.07;91.11
22440;BME280;11387;51.612;7.210;2023-01-10T05:36:40;100754.91;;;4.02;91.16
22440;BME280;11387;51.612;7.210;2023-01-10T05:39:09;100757.81;;;3.96;91.37
22440;BME280;11387;51.612;7.210;2023-01-10T05:41:37;100760.97;;;3.88;91.63
22440;BME280;11387;51.612;7.210;2023-01-10T05:44:06;100769.72;;;3.95;91.78
22440;BME280;11387;51.612;7.210;2023-01-10T05:46:35;100770.28;;;3.97;91.48
22440;BME280;11387;51.612;7.210;2023-01-10T05:49:03;100780.78;;;3.93;91.34
22440;BME280;11387;51.612;7.210;2023-01-10T05:51:32;100783.19;;;3.90;91.84
22440;BME280;11387;51.612;7.210;2023-01-10T05:54:02;100779.41;;;3.91;91.61
22440;BME280;11387;51.612;7.210;2023-01-10T05:56:30;100786.81;;;3.79;91.99
22440;BME280;11387;51.612;7.210;2023-01-10T05:58:58;100782.78;;;3.81;92.28
22440;BME280;11387;51.612;7.210;2023-01-10T06:01:47;100798.63;;;3.72;92.07
22440;BME280;11387;51.612;7.210;2023-01-10T06:04:15;100788.25;;;3.64;92.43
22440;BME280;11387;51.612;7.210;2023-01-10T06:06:44;100800.63;;;3.60;92.93
22440;BME280;11387;51.612;7.210;2023-01-10T06:09:14;100799.81;;;3.60;92.83
22440;BME280;11387;51.612;7.210;2023-01-10T06:11:42;100808.56;;;3.50;93.15
22440;BME280;11387;51.612;7.210;2023-01-10T06:14:10;100809.31;;;3.46;93.01
22440;BME280;11387;51.612;7.210;2023-01-10T06:16:39;100811.13;;;3.40;93.51
22440;BME280;11387;51.612;7.210;2023-01-10T06:19:09;100810.72;;;3.48;93.27
22440;BME280;11387;51.612;7.210;2023-01-10T06:21:37;100800.78;;;3.37;93.67
22440;BME280;11387;51.612;7.210;2023-01-10T06:24:06;100800.28;;;3.40;93.67
22440;BME280;11387;51.612;7.210;2023-01-10T06:26:36;100804.06;;;3.39;93.62
22440;BME280;11387;51.612;7.210;2023-01-10T06:29:05;100816.13;;;3.48;93.78
22440;BME280;11387;51.612;7.210;2023-01-10T06:31:33;100819.88;;;3.47;93.29
22440;BME280;11387;51.612;7.210;2023-01-10T06:34:02;100836.59;;;3.44;93.10
22440;BME280;11387;51.612;7.210;2023-01-10T06:36:30;100840.94;;;3.45;93.74
22440;BME280;11387;51.612;7.210;2023-01-10T06:38:59;100842.84;;;3.45;93.51
22440;BME280;11387;51.612;7.210;2023-01-10T06:41:27;100840.88;;;3.40;93.86
22440;BME280;11387;51.612;7.210;2023-01-10T06:43:57;100842.84;;;3.45;93.69
22440;BME280;11387;51.612;7.210;2023-01-10T06:46:25;100867.50;;;3.48;93.64
22440;BME280;11387;51.612;7.210;2023-01-10T06:48:54;100868.56;;;3.47;93.75
22440;BME280;11387;51.612;7.210;2023-01-10T06:51:22;100861.38;;;3.53;93.38
22440;BME280;11387;51.612;7.210;2023-01-10T06:53:51;100868.50;;;3.59;92.88
22440;BME280;11387;51.612;7.210;2023-01-10T06:56:19;100869.91;;;3.61;92.36
22440;BME280;11387;51.612;7.210;2023-01-10T06:58:48;100871.91;;;3.71;92.31
22440;BME280;11387;51.612;7.210;2023-01-10T07:01:19;100892.84;;;3.76;92.00
22440;BME280;11387;51.612;7.210;2023-01-10T07:03:49;100894.72;;;3.92;91.46
22440;BME280;11387;51.612;7.210;2023-01-10T07:06:17;100903.16;;;3.95;91.07
22440;BME280;11387;51.612;7.210;2023-01-10T07:08:45;100900.25;;;4.02;90.46
22440;BME280;11387;51.612;7.210;2023-01-10T07:11:14;100889.50;;;4.07;90.29
22440;BME280;11387;51.612;7.210;2023-01-10T07:13:43;100889.34;;;4.14;89.94
22440;BME280;11387;51.612;7.210;2023-01-10T07:16:13;100888.09;;;4.21;89.60
22440;BME280;11387;51.612;7.210;2023-01-10T07:18:44;100902.22;;;4.23;89.18
22440;BME280;11387;51.612;7.210;2023-01-10T07:21:13;100911.66;;;4.21;89.36
22440;BME280;11387;51.612;7.210;2023-01-10T07:23:46;100905.50;;;4.25;89.20
22440;BME280;11387;51.612;7.210;2023-01-10T07:26:16;100911.47;;;4.27;88.76
22440;BME280;11387;51.612;7.210;2023-01-10T07:28:47;100911.53;;;4.32;88.80
22440;BME280;11387;51.612;7.210;2023-01-10T07:31:18;100906.88;;;4.28;88.35
22440;BME280;11387;51.612;7.210;2023-01-10T07:33:49;100909.84;;;4.26;88.75
22440;BME280;11387;51.612;7.210;2023-01-10T07:36:18;100906.34;;;4.31;88.79
22440;BME280;11387;51.612;7.210;2023-01-10T07:38:46;100915.75;;;4.23;88.71
22440;BME280;11387;51.612;7.210;2023-01-10T07:41:15;100919.44;;;4.17;89.24
22440;BME280;11387;51.612;7.210;2023-01-10T07:43:43;100929.22;;;4.18;89.06
22440;BME280;11387;51.612;7.210;2023-01-10T07:46:12;100933.66;;;4.24;88.83
22440;BME280;11387;51.612;7.210;2023-01-10T07:48:40;100933.69;;;4.29;88.52
22440;BME280;11387;51.612;7.210;2023-01-10T07:51:10;100936.94;;;4.26;88.96
22440;BME280;11387;51.612;7.210;2023-01-10T07:53:38;100930.38;;;4.22;88.85
22440;BME280;11387;51.612;7.210;2023-01-10T07:56:07;100939.06;;;4.24;88.19
22440;BME280;11387;51.612;7.210;2023-01-10T07:58:35;100933.44;;;4.31;88.06
22440;BME280;11387;51.612;7.210;2023-01-10T08:01:05;100939.38;;;4.28;88.53
22440;BME280;11387;51.612;7.210;2023-01-10T08:03:34;100950.72;;;4.25;88.45
22440;BME280;11387;51.612;7.210;2023-01-10T08:06:04;100952.97;;;4.33;88.15
22440;BME280;11387;51.612;7.210;2023-01-10T08:08:35;100958.16;;;4.34;88.19
22440;BME280;11387;51.612;7.210;2023-01-10T08:11:04;100967.91;;;4.35;88.10
22440;BME280;11387;51.612;7.210;2023-01-10T08:13:33;100966.41;;;4.45;87.85
22440;BME280;11387;51.612;7.210;2023-01-10T08:16:03;100975.13;;;4.47;87.55
22440;BME280;11387;51.612;7.210;2023-01-10T08:18:32;100971.34;;;4.48;87.34
22440;BME280;11387;51.612;7.210;2023-01-10T08:21:01;100970.44;;;4.42;87.51
22440;BME280;11387;51.612;7.210;2023-01-10T08:23:29;100966.00;;;4.53;87.11
22440;BME280;11387;51.612;7.210;2023-01-10T08:26:00;100973.81;;;4.49;87.18
22440;BME280;11387;51.612;7.210;2023-01-10T08:28:28;100974.31;;;4.46;87.55
22440;BME280;11387;51.612;7.210;2023-01-10T08:30:57;100965.44;;;4.51;87.56
22440;BME280;11387;51.612;7.210;2023-01-10T08:33:27;100968.06;;;4.46;87.58
22440;BME280;11387;51.612;7.210;2023-01-10T08:35:56;100972.66;;;4.45;87.81
22440;BME280;11387;51.612;7.210;2023-01-10T08:38:24;100983.75;;;4.44;87.65
22440;BME280;11387;51.612;7.210;2023-01-10T08:40:55;100978.06;;;4.45;87.53
22440;BME280;11387;51.612;7.210;2023-01-10T08:43:25;100977.84;;;4.68;87.00
22440;BME280;11387;51.612;7.210;2023-01-10T08:45:53;100999.22;;;4.65;86.99
22440;BME280;11387;51.612;7.210;2023-01-10T08:48:22;101000.47;;;4.57;86.97
22440;BME280;11387;51.612;7.210;2023-01-10T08:50:50;100989.19;;;4.65;87.01
22440;BME280;11387;51.612;7.210;2023-01-10T08:53:19;100992.03;;;4.76;86.49
22440;BME280;11387;51.612;7.210;2023-01-10T08:55:48;100983.66;;;4.77;86.13
22440;BME280;11387;51.612;7.210;2023-01-10T08:58:16;100990.41;;;4.74;86.25
22440;BME280;11387;51.612;7.210;2023-01-10T09:00:48;100991.28;;;4.80;86.08
22440;BME280;11387;51.612;7.210;2023-01-10T09:03:21;100996.66;;;4.97;85.39
22440;BME280;11387;51.612;7.210;2023-01-10T09:05:50;100984.19;;;5.23;84.75
22440;BME280;11387;51.612;7.210;2023-01-10T09:08:18;101002.25;;;5.34;84.34
22440;BME280;11387;51.612;7.210;2023-01-10T09:10:46;100992.47;;;6.61;79.34
22440;BME280;11387;51.612;7.210;2023-01-10T09:13:15;100998.19;;;7.17;76.12
22440;BME280;11387;51.612;7.210;2023-01-10T09:15:44;100991.22;;;7.97;72.75
22440;BME280;11387;51.612;7.210;2023-01-10T09:18:14;101000.03;;;9.14;67.96
22440;BME280;11387;51.612;7.210;2023-01-10T09:20:43;100982.97;;;8.83;68.19
22440;BME280;11387;51.612;7.210;2023-01-10T09:23:15;100998.56;;;9.37;66.46
22440;BME280;11387;51.612;7.210;2023-01-10T09:25:46;100999.91;;;8.80;67.61
22440;BME280;11387;51.612;7.210;2023-01-10T09:28:14;101009.75;;;7.80;70.97
22440;BME280;11387;51.612;7.210;2023-01-10T09:30:44;100996.44;;;8.14;71.14
22440;BME280;11387;51.612;7.210;2023-01-10T09:33:14;101007.59;;;7.82;70.19
22440;BME280;11387;51.612;7.210;2023-01-10T09:35:43;101014.50;;;7.17;72.69
22440;BME280;11387;51.612;7.210;2023-01-10T09:38:13;101018.31;;;7.16;73.65
22440;BME280;11387;51.612;7.210;2023-01-10T09:40:58;101005.38;;;7.63;72.32
22440;BME280;11387;51.612;7.210;2023-01-10T09:43:38;101016.94;;;7.18;73.96
22440;BME280;11387;51.612;7.210;2023-01-10T09:46:16;101019.75;;;7.43;72.55
22440;BME280;11387;51.612;7.210;2023-01-10T09:48:54;101017.94;;;8.10;69.87
22440;BME280;11387;51.612;7.210;2023-01-10T09:51:31;101020.13;;;8.28;69.37
22440;BME280;11387;51.612;7.210;2023-01-10T09:54:04;101010.59;;;8.21;68.66
22440;BME280;11387;51.612;7.210;2023-01-10T09:56:39;101026.16;;;8.46;69.07
22440;BME280;11387;51.612;7.210;2023-01-10T09:59:16;101017.03;;;9.55;65.01
22440;BME280;11387;51.612;7.210;2023-01-10T10:01:46;101023.94;;;8.63;66.65
22440;BME280;11387;51.612;7.210;2023-01-10T10:04:26;101011.03;;;8.89;66.83
22440;BME280;11387;51.612;7.210;2023-01-10T10:06:57;101024.47;;;8.29;68.02
22440;BME280;11387;51.612;7.210;2023-01-10T10:09:28;101020.63;;;7.69;70.98
22440;BME280;11387;51.612;7.210;2023-01-10T10:12:20;101011.41;;;8.31;68.73
22440;BME280;11387;51.612;7.210;2023-01-10T10:15:02;101010.34;;;9.27;64.75
22440;BME280;11387;51.612;7.210;2023-01-10T10:17:42;101005.38;;;9.78;64.27
22440;BME280;11387;51.612;7.210;2023-01-10T10:20:30;101001.59;;;8.20;67.37
22440;BME280;11387;51.612;7.210;2023-01-10T10:23:14;101007.00;;;7.69;69.97
22440;BME280;11387;51.612;7.210;2023-01-10T10:25:55;101000.22;;;8.02;68.35
22440;BME280;11387;51.612;7.210;2023-01-10T10:28:43;101010.81;;;7.58;70.62
22440;BME280;11387;51.612;7.210;2023-01-10T10:31:31;101007.47;;;7.26;72.62
22440;BME280;11387;51.612;7.210;2023-01-10T10:34:11;100998.34;;;8.49;69.13
22440;BME280;11387;51.612;7.210;2023-01-10T10:36:47;101004.72;;;9.03;66.52
22440;BME280;11387;51.612;7.210;2023-01-10T10:39:21;101008.16;;;8.39;67.07
22440;BME280;11387;51.612;7.210;2023-01-10T10:41:52;101002.38;;;8.56;67.06
22440;BME280;11387;51.612;7.210;2023-01-10T10:44:30;101011.00;;;9.04;65.92
22440;BME280;11387;51.612;7.210;2023-01-10T10:47:05;101010.75;;;8.95;65.98
22440;BME280;11387;51.612;7.210;2023-01-10T10:49:48;101007.34;;;8.34;66.82
22440;BME280;11387;51.612;7.210;2023-01-10T10:52:22;101005.69;;;7.82;69.30
22440;BME280;11387;51.612;7.210;2023-01-10T10:54:52;100998.81;;;7.64;70.07
22440;BME280;11387;51.612;7.210;2023-01-10T10:57:23;100989.84;;;7.59;70.38
22440;BME280;11387;51.612;7.210;2023-01-10T10:59:53;100993.69;;;7.73;70.97
22440;BME280;11387;51.612;7.210;2023-01-10T11:02:25;100974.81;;;7.31;70.40
22440;BME280;11387;51.612;7.210;2023-01-10T11:04:56;100974.72;;;7.05;72.06
22440;BME280;11387;51.612;7.210;2023-01-10T11:07:31;100989.00;;;7.48;71.76
22440;BME280;11387;51.612;7.210;2023-01-10T11:10:04;100981.38;;;7.40;71.35
22440;BME280;11387;51.612;7.210;2023-01-10T11:12:44;100978.41;;;7.52;71.21
22440;BME280;11387;51.612;7.210;2023-01-10T11:15:33;100976.47;;;7.32;71.96
22440;BME280;11387;51.612;7.210;2023-01-10T11:18:04;100981.78;;;6.96;73.46
22440;BME280;11387;51.612;7.210;2023-01-10T11:20:33;100974.19;;;7.08;73.34
22440;BME280;11387;51.612;7.210;2023-01-10T11:23:03;100972.09;;;7.31;72.68
22440;BME280;11387;51.612;7.210;2023-01-10T11:25:32;100967.47;;;7.31;72.20
22440;BME280;11387;51.612;7.210;2023-01-10T11:28:01;100973.78;;;7.52;71.53
22440;BME280;11387;51.612;7.210;2023-01-10T11:30:32;100975.09;;;7.39;71.93
22440;BME280;11387;51.612;7.210;2023-01-10T11:33:05;100980.59;;;7.60;71.18
22440;BME280;11387;51.612;7.210;2023-01-10T11:35:36;100964.25;;;8.00;70.17
22440;BME280;11387;51.612;7.210;2023-01-10T11:38:19;100963.72;;;8.24;69.38
22440;BME280;11387;51.612;7.210;2023-01-10T11:40:52;100958.53;;;8.07;69.75
22440;BME280;11387;51.612;7.210;2023-01-10T11:43:27;100946.56;;;7.62;70.75
22440;BME280;11387;51.612;7.210;2023-01-10T11:45:58;100955.25;;;7.44;71.92
22440;BME280;11387;51.612;7.210;2023-01-10T11:48:42;100954.44;;;7.43;71.96
22440;BME280;11387;51.612;7.210;2023-01-10T11:51:35;100959.03;;;7.28;72.35
22440;BME280;11387;51.612;7.210;2023-01-10T11:54:10;100951.38;;;7.15;72.89
22440;BME280;11387;51.612;7.210;2023-01-10T11:56:39;100939.94;;;7.18;72.76
22440;BME280;11387;51.612;7.210;2023-01-10T11:59:11;100940.00;;;7.33;72.76
22440;BME280;11387;51.612;7.210;2023-01-10T12:01:42;100945.16;;;7.29;71.95
22440;BME280;11387;51.612;7.210;2023-01-10T12:04:13;100945.88;;;7.04;73.08
22440;BME280;11387;51.612;7.210;2023-01-10T12:06:43;100945.38;;;7.13;72.51
22440;BME280;11387;51.612;7.210;2023-01-10T12:09:34;100946.94;;;6.93;73.47
22440;BME280;11387;51.612;7.210;2023-01-10T12:12:04;100948.59;;;6.94;73.22
22440;BME280;11387;51.612;7.210;2023-01-10T12:14:33;100942.63;;;7.02;73.41
22440;BME280;11387;51.612;7.210;2023-01-10T12:17:02;100948.03;;;6.92;74.48
22440;BME280;11387;51.612;7.210;2023-01-10T12:19:31;100944.00;;;7.00;73.91
22440;BME280;11387;51.612;7.210;2023-01-10T12:22:04;100940.44;;;6.94;73.35
22440;BME280;11387;51.612;7.210;2023-01-10T12:24:39;100930.38;;;7.05;73.33
22440;BME280;11387;51.612;7.210;2023-01-10T12:27:12;100927.97;;;7.14;73.51
22440;BME280;11387;51.612;7.210;2023-01-10T12:29:45;100928.25;;;7.17;72.57
22440;BME280;11387;51.612;7.210;2023-01-10T12:32:18;100927.38;;;6.96;74.00
22440;BME280;11387;51.612;7.210;2023-01-10T12:34:53;100934.22;;;7.14;72.84
22440;BME280;11387;51.612;7.210;2023-01-10T12:37:28;100920.63;;;7.14;73.53
22440;BME280;11387;51.612;7.210;2023-01-10T12:40:04;100932.56;;;7.08;73.56
22440;BME280;11387;51.612;7.210;2023-01-10T12:42:46;100925.00;;;7.25;73.35
22440;BME280;11387;51.612;7.210;2023-01-10T12:45:39;100924.97;;;7.15;72.80
22440;BME280;11387;51.612;7.210;2023-01-10T12:48:14;100912.72;;;7.13;72.71
22440;BME280;11387;51.612;7.210;2023-01-10T12:50:46;100914.13;;;7.25;72.77
22440;BME280;11387;51.612;7.210;2023-01-10T12:53:28;100907.59;;;7.36;72.53
22440;BME280;11387;51.612;7.210;2023-01-10T12:56:00;100915.75;;;7.36;72.55
22440;BME280;11387;51.612;7.210;2023-01-10T12:58:39;100898.63;;;7.46;71.89
22440;BME280;11387;51.612;7.210;2023-01-10T13:01:13;100904.63;;;7.33;72.46
22440;BME280;11387;51.612;7.210;2023-01-10T13:03:44;100892.09;;;7.47;71.78
22440;BME280;11387;51.612;7.210;2023-01-10T13:06:20;100889.66;;;7.56;71.25
22440;BME280;11387;51.612;7.210;2023-01-10T13:08:49;100882.31;;;7.56;70.97
22440;BME280;11387;51.612;7.210;2023-01-10T13:11:21;100891.00;;;7.53;71.28
22440;BME280;11387;51.612;7.210;2023-01-10T13:13:57;100876.31;;;7.59;71.00
22440;BME280;11387;51.612;7.210;2023-01-10T13:16:35;100876.84;;;7.66;70.51
22440;BME280;11387;51.612;7.210;2023-01-10T13:19:22;100871.97;;;7.63;70.41
22440;BME280;11387;51.612;7.210;2023-01-10T13:22:17;100865.16;;;7.61;70.56
22440;BME280;11387;51.612;7.210;2023-01-10T13:24:57;100861.63;;;7.60;70.50
22440;BME280;11387;51.612;7.210;2023-01-10T13:27:41;100859.44;;;7.52;71.34
22440;BME280;11387;51.612;7.210;2023-01-10T13:30:24;100851.28;;;7.57;71.38